Flight Track Log - Related Links

Times and Time Zones

All times are in EDT time to prevent confusion due to time zone crossing. See the JBU194 flight status page for this flight to view local times or setup timezone preferences in your user account.

Time Position Orientation Groundspeed Altitude Reporting Facility
EDT Latitude Longitude Course Direction KTS MPH feet Rate Location/Type
Sun 07:06:22 PM 36.0747 -115.1731 271° West 172 198 3,400  Level Los Angeles Center
Sun 07:06:59 PM 36.0750 -115.2092 249° West 164 189 3,900 490 Climbing Los Angeles Center
Sun 07:08:00 PM 36.0586 -115.2633 198° South 203 234 4,200 828 Climbing Los Angeles Center
Sun 07:08:55 PM 36.0067 -115.2844 199° South 223 257 5,500 1,670 Climbing Los Angeles Center
Sun 07:09:55 PM 35.9444 -115.3106 156° South 228 262 7,400 1,774 Climbing Los Angeles Center
Sun 07:09:51 PM 35.9547 -115.3081 161° South 33,000 1,636 Climbing Los Angeles Center
Sun 07:10:50 PM 35.8900 -115.2806 109° East 249 287 8,900 -11,550 Descending Los Angeles Center
Sun 07:11:51 PM 35.8664 -115.1961 80° East 250 288 9,900 1,450 Climbing Los Angeles Center
Sun 07:12:50 PM 35.8800 -115.0958 85° East 258 297 11,800 1,513 Climbing Los Angeles Center
Sun 07:13:50 PM 35.8875 -114.9908 88° East 276 318 12,900 450 Climbing Los Angeles Center
Sun 07:14:50 PM 35.8908 -114.8856 91° East 293 337 12,700  Descending Los Angeles Center
Sun 07:15:50 PM 35.8897 -114.7831 143° Southeast 299 344 12,900 150 Climbing Los Angeles Center
Sun 07:16:50 PM 35.8286 -114.7253 217° Southwest 249 287 13,000 50 Climbing Los Angeles Center
Sun 07:17:50 PM 35.7686 -114.7800 253° West 178 205 13,000  Level Los Angeles Center
Sun 07:18:50 PM 35.7444 -114.8750 255° West 206 237 13,000 -150 Level Los Angeles Center
Sun 07:19:50 PM 35.7225 -114.9725 255° West 248 285 12,700 -466 Descending Los Angeles Center
Sun 07:20:46 PM 35.7025 -115.0625 252° West 290 334 12,100 -689 Descending Los Angeles Center
Sun 07:20:51 PM 35.7006 -115.0700 277° West 276 318 12,000 -76 Descending Los Angeles Center
Sun 07:22:05 PM 35.7119 -115.1800 123° Southeast 291 335 12,000  Level Los Angeles Center
Sun 07:21:50 PM 35.7011 -115.1597 353° North 274 315 12,000  Level Los Angeles Center
Sun 07:23:06 PM 35.7931 -115.1739 208° Southwest 313 360 12,000  Level Los Angeles Center
Sun 07:22:50 PM 35.7767 -115.1844 39° Northeast 209 241 12,000  Level Los Angeles Center
Sun 07:23:50 PM 35.8428 -115.1194 35° Northeast 212 244 12,000  Level Los Angeles Center
Sun 07:24:07 PM 35.8636 -115.1014 45° Northeast 309 356 12,000  Level Los Angeles Center
Sun 07:24:50 PM 35.9069 -115.0469 46° Northeast 249 287 12,000  Level Los Angeles Center
Sun 07:25:08 PM 35.9233 -115.0261 69° East 307 353 12,000  Level Los Angeles Center
Sun 07:25:51 PM 35.9436 -114.9592 77° East 277 319 12,000 -109 Level Los Angeles Center
Sun 07:26:03 PM 35.9475 -114.9386 81° East 296 341 11,900  Descending Los Angeles Center
Sun 07:26:51 PM 35.9572 -114.8589 84° East 271 312 12,000 100 Climbing Los Angeles Center
Sun 07:27:03 PM 35.9592 -114.8358 126° Southeast 304 350 12,000  Level Los Angeles Center
Sun 07:27:50 PM 35.9208 -114.7697 154° Southeast 265 305 12,000  Level Los Angeles Center
Sun 07:28:04 PM 35.9039 -114.7597 166° South 299 344 12,000  Level Los Angeles Center
Sun 07:28:51 PM 35.8411 -114.7403 181° South 242 278 12,000  Level Los Angeles Center
Sun 07:29:05 PM 35.8244 -114.7406 175° South 291 335 12,000  Level Los Angeles Center
Sun 07:29:51 PM 35.7639 -114.7339 207° Southwest 262 302 12,000  Level Los Angeles Center
Sun 07:30:06 PM 35.7431 -114.7472 247° West 304 350 12,000 -100 Level Los Angeles Center
Sun 07:30:51 PM 35.7208 -114.8114 256° West 220 253 11,900 -98 Descending Los Angeles Center
Sun 07:31:07 PM 35.7150 -114.8397 253° West 283 326 11,900 100 Level Los Angeles Center
Sun 07:31:51 PM 35.6989 -114.9064 248° West 251 289 12,000 98 Climbing Los Angeles Center
Sun 07:32:08 PM 35.6889 -114.9372 257° West 296 341 12,000  Level Los Angeles Center
Sun 07:32:51 PM 35.6769 -114.9989 247° West 265 305 12,000  Level Los Angeles Center
Sun 07:33:02 PM 35.6708 -115.0167 275° West 289 333 12,000  Level Los Angeles Center
Sun 07:33:51 PM 35.6756 -115.0908 305° West 270 311 12,000  Level Los Angeles Center
Sun 07:34:03 PM 35.6883 -115.1136 360° North 296 341 12,000  Level Los Angeles Center
Sun 07:35:04 PM 35.7717 -115.1128 187° South 314 361 12,000  Level Los Angeles Center
Sun 07:34:51 PM 35.7531 -115.1156 14° North 224 258 12,000  Level Los Angeles Center
Sun 07:35:50 PM 35.8342 -115.0914 North 228 262 12,000  Level Los Angeles Center
Sun 07:36:11 PM 35.8614 -115.0886 18° North 305 351 12,000  Level Los Angeles Center
Sun 07:36:51 PM 35.9153 -115.0672 13° North 260 299 12,000 100 Level Los Angeles Center
Sun 07:37:11 PM 35.9425 -115.0592 24° Northeast 301 346 12,100  Climbing Los Angeles Center
Sun 07:37:50 PM 35.9944 -115.0303 48° Northeast 279 321 12,000 -90 Descending Los Angeles Center
Sun 07:38:18 PM 36.0192 -114.9967 86° East 297 342 12,000 98 Level Los Angeles Center
Sun 07:38:51 PM 36.0228 -114.9375 100° East 255 293 12,100  Climbing Los Angeles Center
Sun 07:39:25 PM 36.0158 -114.8864 125° Southeast 303 349 12,000 -100 Descending Los Angeles Center
Sun 07:39:51 PM 35.9925 -114.8456 164° South 245 282 12,000  Level Los Angeles Center
Sun 07:40:20 PM 35.9589 -114.8333 192° South 288 331 12,000  Level Los Angeles Center
Sun 07:41:27 PM 35.8717 -114.8553 190° South 292 336 12,000  Level Los Angeles Center
Sun 07:42:22 PM 35.7947 -114.8717 196° South 295 339 12,000 104 Level Los Angeles Center
Sun 07:43:22 PM 35.7136 -114.9011 260° West 305 351 12,200 -52 Climbing Los Angeles Center
Sun 07:44:17 PM 35.7017 -114.9806 346° North 300 345 11,900 -103 Descending Los Angeles Center
Sun 07:45:18 PM 35.7750 -115.0025 10° North 299 344 12,000 49 Climbing Los Angeles Center
Sun 07:46:19 PM 35.8603 -114.9833 16° North 311 358 12,000 52 Level Los Angeles Center
Sun 07:47:13 PM 35.9372 -114.9567 26° Northeast 310 357 12,100  Climbing Los Angeles Center
Sun 07:48:14 PM 36.0100 -114.9119 98° East 308 354 12,000 -49 Descending Los Angeles Center
Sun 07:49:15 PM 35.9986 -114.8172 181° South 301 346 12,000  Level Los Angeles Center
Sun 07:50:22 PM 35.9108 -114.8186 191° South 284 327 12,000 49 Level Los Angeles Center
Sun 07:51:17 PM 35.8381 -114.8353 230° Southwest 290 334 12,100  Climbing Los Angeles Center
Sun 07:52:17 PM 35.7886 -114.9078 326° Northwest 298 343 12,000 -50 Descending Los Angeles Center
Sun 07:53:18 PM 35.8539 -114.9631 11° North 314 361 12,000  Level Los Angeles Center
Sun 07:54:19 PM 35.9350 -114.9439 18° North 306 352 12,000  Level Los Angeles Center
Sun 07:55:20 PM 36.0161 -114.9119 75° East 300 345 12,000  Level Los Angeles Center
Sun 07:56:27 PM 36.0400 -114.8036 160° South 318 366 12,000  Level Los Angeles Center
Sun 07:57:22 PM 35.9731 -114.7739 191° South 290 334 12,000  Level Los Angeles Center
Sun 07:58:28 PM 35.8897 -114.7933 191° South 277 319 12,000 47 Level Los Angeles Center
Sun 07:59:29 PM 35.8106 -114.8125 194° South 287 330 12,100  Climbing Los Angeles Center
Sun 08:00:30 PM 35.7336 -114.8369 265° West 283 326 12,000 -47 Descending Los Angeles Center
Sun 08:01:37 PM 35.7264 -114.9292 356° North 286 329 12,000  Level Los Angeles Center
Sun 08:02:38 PM 35.8078 -114.9356 13° North 307 353 12,000  Level Los Angeles Center
Sun 08:03:45 PM 35.9056 -114.9086 15° North 316 364 12,000  Level Los Angeles Center
Sun 08:04:46 PM 35.9867 -114.8817 70° East 303 349 12,000  Level Los Angeles Center
Sun 08:05:47 PM 36.0128 -114.7914 167° South 301 346 12,000  Level Los Angeles Center
Sun 08:06:41 PM 35.9458 -114.7719 193° South 290 334 12,000  Level Los Angeles Center
Sun 08:07:42 PM 35.8667 -114.7936 198° South 287 330 12,000  Level Los Angeles Center
Sun 08:08:43 PM 35.7919 -114.8231 280° West 286 329 12,000  Level Los Angeles Center
Sun 08:09:38 PM 35.8033 -114.9022 North 289 333 12,000  Level Los Angeles Center
Sun 08:10:45 PM 35.8928 -114.8933 13° North 300 345 12,000  Level Los Angeles Center
Sun 08:11:46 PM 35.9781 -114.8689 16° North 301 346 12,000  Level Los Angeles Center
Sun 08:12:47 PM 36.0592 -114.8394 109° East 294 338 12,000  Level Los Angeles Center
Sun 08:13:48 PM 36.0353 -114.7550 166° South 300 345 12,000  Level Los Angeles Center
Sun 08:14:48 PM 35.9578 -114.7306 166° South 285 328 12,000  Level Los Angeles Center
Sun 08:15:43 PM 35.8847 -114.7089 198° South 288 331 12,000  Level Los Angeles Center
Sun 08:16:50 PM 35.8097 -114.7383 297° West 288 331 12,000  Level Los Angeles Center
Sun 08:17:45 PM 35.8400 -114.8122 345° North 288 331 12,000  Level Los Angeles Center
Sun 08:18:52 PM 35.9278 -114.8414 344° North 292 336 12,000  Level Los Angeles Center
Sun 08:19:53 PM 36.0053 -114.8686 33° Northeast 290 334 12,000  Level Los Angeles Center
Sun 08:20:54 PM 36.0633 -114.8214 134° Southeast 287 330 12,000  Level Los Angeles Center
Sun 08:21:55 PM 36.0125 -114.7553 164° South 285 328 12,000  Level Los Angeles Center
Sun 08:22:50 PM 35.9494 -114.7333 166° South 276 318 12,000  Level Los Angeles Center
Sun 08:23:51 PM 35.8700 -114.7092 212° Southwest 287 330 12,000  Level Los Angeles Center
Sun 08:24:51 PM 35.8122 -114.7536 309° West 280 322 12,000  Level Los Angeles Center
Sun 08:25:46 PM 35.8525 -114.8144 343° North 281 323 12,000  Level Los Angeles Center
Sun 08:26:53 PM 35.9383 -114.8464 347° North 294 338 12,000  Level Los Angeles Center
Sun 08:28:00 PM 36.0261 -114.8708 61° Northeast 287 330 12,000  Level Los Angeles Center
Sun 08:29:00 PM 36.0628 -114.7906 154° Southeast 299 344 12,000  Level Los Angeles Center
Sun 08:30:01 PM 35.9936 -114.7481 165° South 286 329 12,000  Level Los Angeles Center
Sun 08:31:03 PM 35.9181 -114.7236 166° South 280 322 12,000  Level Los Angeles Center
Sun 08:31:57 PM 35.8469 -114.7019 238° Southwest 290 334 12,000  Level Los Angeles Center
Sun 08:32:58 PM 35.8103 -114.7742 326° Northwest 271 312 12,000  Level Los Angeles Center
Sun 08:33:59 PM 35.8733 -114.8269 345° North 289 333 12,000  Level Los Angeles Center
Sun 08:35:00 PM 35.9550 -114.8539 352° North 287 330 12,000  Level Los Angeles Center
Sun 08:36:00 PM 36.0344 -114.8681 76° East 288 331 12,000  Level Los Angeles Center
Sun 08:37:01 PM 36.0522 -114.7803 161° South 294 338 12,000  Level Los Angeles Center
Sun 08:38:08 PM 35.9706 -114.7458 165° South 281 323 12,000  Level Los Angeles Center
Sun 08:39:09 PM 35.8953 -114.7214 184° South 279 321 12,000  Level Los Angeles Center
Sun 08:40:10 PM 35.8203 -114.7278 283° West 280 322 12,000  Level Los Angeles Center
Sun 08:41:11 PM 35.8356 -114.8097 343° North 283 326 12,000  Level Los Angeles Center
Sun 08:42:05 PM 35.9069 -114.8367 346° North 291 335 12,000  Level Los Angeles Center
Sun 08:43:06 PM 35.9864 -114.8611 12° North 291 335 12,000  Level Los Angeles Center
Sun 08:44:07 PM 36.0592 -114.8419 117° Southeast 295 339 12,000  Level Los Angeles Center
Sun 08:45:15 PM 36.0250 -114.7578 165° South 278 320 12,000  Level Los Angeles Center
Sun 08:46:09 PM 35.9536 -114.7333 168° South 282 325 12,000  Level Los Angeles Center
Sun 08:47:10 PM 35.8783 -114.7142 199° South 281 323 12,000  Level Los Angeles Center
Sun 08:48:11 PM 35.8161 -114.7408 297° West 270 311 12,000  Level Los Angeles Center
Sun 08:49:12 PM 35.8461 -114.8144 343° North 281 323 12,000  Level Los Angeles Center
Sun 08:50:07 PM 35.9175 -114.8417 347° North 286 329 12,000  Level Los Angeles Center
Sun 08:51:08 PM 35.9947 -114.8636 20° North 290 334 12,000  Level Los Angeles Center
Sun 08:52:08 PM 36.0611 -114.8342 128° Southeast 299 344 12,000  Level Los Angeles Center
Sun 08:53:15 PM 36.0125 -114.7581 165° South 283 326 12,000  Level Los Angeles Center
Sun 08:54:16 PM 35.9369 -114.7336 166° South 277 319 12,000  Level Los Angeles Center
Sun 08:55:11 PM 35.8681 -114.7117 213° Southwest 277 319 12,000  Level Los Angeles Center
Sun 08:56:12 PM 35.8122 -114.7561 313° West 274 315 12,000  Level Los Angeles Center
Sun 08:57:12 PM 35.8608 -114.8194 344° North 283 326 12,000 -50 Level Los Angeles Center
Sun 08:58:13 PM 35.9383 -114.8464 348° North 289 333 11,900 -47 Descending Los Angeles Center
Sun 08:59:20 PM 36.0303 -114.8706 66° East 288 331 11,900  Level Los Angeles Center
Sun 09:00:15 PM 36.0567 -114.7983 152° Southeast 301 346 11,900  Level Los Angeles Center
Sun 09:01:22 PM 35.9831 -114.7508 165° South 281 323 11,900  Level Los Angeles Center
Sun 09:02:22 PM 35.9078 -114.7264 173° South 277 319 11,900  Level Los Angeles Center
Sun 09:03:23 PM 35.8325 -114.7150 258° West 282 325 11,900  Level Los Angeles Center
Sun 09:04:18 PM 35.8189 -114.7919 336° Northwest 285 328 11,900  Level Los Angeles Center
Sun 09:05:19 PM 35.8903 -114.8319 346° North 282 325 11,900  Level Los Angeles Center
Sun 09:06:20 PM 35.9675 -114.8561 358° North 275 316 11,900  Level Los Angeles Center
Sun 09:07:21 PM 36.0447 -114.8603 97° East 277 319 11,900  Level Los Angeles Center
Sun 09:08:27 PM 36.0356 -114.7731 165° South 287 330 11,900  Level Los Angeles Center
Sun 09:09:28 PM 35.9603 -114.7486 165° South 278 320 11,900  Level Los Angeles Center
Sun 09:10:23 PM 35.8869 -114.7242 191° South 279 321 11,900  Level Los Angeles Center
Sun 09:11:24 PM 35.8183 -114.7408 300° West 282 325 11,900  Level Los Angeles Center
Sun 09:12:31 PM 35.8544 -114.8194 345° North 291 335 11,900  Level Los Angeles Center
Sun 09:13:31 PM 35.9342 -114.8464 347° North 293 337 11,900  Level Los Angeles Center
Sun 09:14:32 PM 36.0117 -114.8683 41° Northeast 294 338 11,900  Level Los Angeles Center
Sun 09:15:33 PM 36.0653 -114.8111 140° Southeast 295 339 11,900  Level Los Angeles Center
Sun 09:16:34 PM 36.0061 -114.7503 166° South 282 325 11,900  Level Los Angeles Center
Sun 09:17:34 PM 35.9350 -114.7286 166° South 277 319 11,900  Level Los Angeles Center
Sun 09:18:29 PM 35.8658 -114.7067 225° Southwest 279 321 11,900  Level Los Angeles Center
Sun 09:19:36 PM 35.8122 -114.7717 321° Northwest 275 316 11,900  Level Los Angeles Center
Sun 09:20:31 PM 35.8650 -114.8244 345° North 285 328 11,900  Level Los Angeles Center
Sun 09:21:38 PM 35.9489 -114.8514 349° North 291 335 11,900  Level Los Angeles Center
Sun 09:22:39 PM 36.0303 -114.8706 64° Northeast 295 339 11,900  Level Los Angeles Center
Sun 09:23:40 PM 36.0628 -114.7881 154° Southeast 288 331 11,900  Level Los Angeles Center
Sun 09:24:41 PM 35.9936 -114.7456 165° South 282 325 11,900  Level Los Angeles Center
Sun 09:25:42 PM 35.9181 -114.7211 166° South 277 319 11,900  Level Los Angeles Center
Sun 09:26:36 PM 35.8469 -114.6992 240° Southwest 284 327 11,900  Level Los Angeles Center
Sun 09:27:37 PM 35.8122 -114.7742 329° Northwest 271 312 11,900  Level Los Angeles Center
Sun 09:28:50 PM 35.8903 -114.8319 346° North 291 335 11,900  Level Los Angeles Center
Sun 09:29:51 PM 35.9717 -114.8561 356° North 296 341 11,900  Level Los Angeles Center
Sun 09:30:46 PM 36.0447 -114.8628 94° East 297 342 11,900  Level Los Angeles Center
Sun 09:31:53 PM 36.0397 -114.7678 163° South 290 334 11,900  Level Los Angeles Center
Sun 09:32:54 PM 35.9664 -114.7408 166° South 280 322 11,900  Level Los Angeles Center
Sun 09:33:49 PM 35.9014 -114.7214 182° South 275 316 11,900  Level Los Angeles Center
Sun 09:34:49 PM 35.8222 -114.7253 278° West 283 326 11,900  Level Los Angeles Center
Sun 09:35:51 PM 35.8314 -114.8072 343° North 275 316 11,900  Level Los Angeles Center
Sun 09:36:51 PM 35.9089 -114.8367 346° North 290 334 11,900  Level Los Angeles Center
Sun 09:37:52 PM 35.9886 -114.8611 20° North 295 339 11,900  Level Los Angeles Center
Sun 09:38:59 PM 36.0653 -114.8264 125° Southeast 294 338 11,900  Level Los Angeles Center
Sun 09:39:54 PM 36.0292 -114.7628 164° South 284 327 11,900  Level Los Angeles Center
Sun 09:40:55 PM 35.9539 -114.7358 164° South 277 319 11,900  Level Los Angeles Center
Sun 09:41:55 PM 35.8825 -114.7114 200° South 273 314 11,900  Level Los Angeles Center
Sun 09:43:02 PM 35.8119 -114.7433 297° West 278 320 11,900  Level Los Angeles Center
Sun 09:43:57 PM 35.8400 -114.8122 343° North 281 323 11,900  Level Los Angeles Center
Sun 09:44:58 PM 35.9194 -114.8417 347° North 286 329 11,900  Level Los Angeles Center
Sun 09:45:53 PM 35.9947 -114.8636 27° Northeast 292 336 11,900  Level Los Angeles Center
Sun 09:47:06 PM 36.0653 -114.8186 135° Southeast 285 328 11,900  Level Los Angeles Center
Sun 09:48:07 PM 36.0125 -114.7528 165° South 283 326 11,900  Level Los Angeles Center
Sun 09:49:07 PM 35.9453 -114.7308 165° South 273 314 11,900  Level Los Angeles Center
Sun 09:50:03 PM 35.8719 -114.7067 201° Southwest 270 311 11,900  Level Los Angeles Center
Sun 09:50:57 PM 35.8161 -114.7331 290° West 268 308 11,900  Level Los Angeles Center
Sun 09:51:58 PM 35.8400 -114.8147 344° North 285 328 11,900  Level Los Angeles Center
Sun 09:52:59 PM 35.9175 -114.8417 347° North 286 329 11,900  Level Los Angeles Center
Sun 09:54:00 PM 35.9947 -114.8636 22° Northeast 282 325 11,900  Level Los Angeles Center
Sun 09:55:01 PM 36.0592 -114.8317 127° Southeast 284 327 11,900  Level Los Angeles Center
Sun 09:56:01 PM 36.0189 -114.7656 166° South 272 313 11,900  Level Los Angeles Center
Sun 09:57:03 PM 35.9456 -114.7436 164° South 265 305 11,900  Level Los Angeles Center
Sun 09:58:09 PM 35.8639 -114.7144 213° Southwest 269 310 11,900  Level Los Angeles Center
Sun 09:59:04 PM 35.8122 -114.7561 313° West 275 316 11,900  Level Los Angeles Center
Sun 10:00:05 PM 35.8608 -114.8194 344° North 278 320 11,900  Level Los Angeles Center
Sun 10:01:12 PM 35.9489 -114.8514 348° North 286 329 11,900  Level Los Angeles Center
Sun 10:02:13 PM 36.0261 -114.8708 59° Northeast 286 329 11,900  Level Los Angeles Center
Sun 10:03:08 PM 36.0589 -114.8033 148° Southeast 281 323 11,900  Level Los Angeles Center
Sun 10:04:14 PM 35.9936 -114.7531 166° South 271 312 11,900  Level Los Angeles Center
Sun 10:05:21 PM 35.9161 -114.7289 169° South 264 304 11,900  Level Los Angeles Center
Sun 10:06:22 PM 35.8386 -114.7097 253° West 273 314 11,900  Level Los Angeles Center
Sun 10:07:23 PM 35.8189 -114.7894 333° Northwest 273 314 11,900  Level Los Angeles Center
Sun 10:08:17 PM 35.8797 -114.8269 345° North 281 323 11,900  Level Los Angeles Center
Sun 10:09:18 PM 35.9592 -114.8539 353° North 288 331 11,900  Level Los Angeles Center
Sun 10:10:19 PM 36.0386 -114.8653 74° East 302 348 11,900  Level Los Angeles Center
Sun 10:11:20 PM 36.0567 -114.7856 154° Southeast 271 312 11,900  Level Los Angeles Center
Sun 10:12:15 PM 35.9956 -114.7481 166° South 273 314 11,900  Level Los Angeles Center
Sun 10:13:15 PM 35.9244 -114.7261 167° South 263 303 11,900  Level Los Angeles Center
Sun 10:14:22 PM 35.8469 -114.7044 243° Southwest 267 307 11,900  Level Los Angeles Center
Sun 10:15:23 PM 35.8144 -114.7817 329° Northwest 263 303 11,900  Level Los Angeles Center
Sun 10:16:18 PM 35.8714 -114.8244 345° North 286 329 11,900  Level Los Angeles Center
Sun 10:17:19 PM 35.9508 -114.8514 351° North 286 329 11,900  Level Los Angeles Center
Sun 10:18:25 PM 36.0386 -114.8681 72° East 285 328 11,900  Level Los Angeles Center
Sun 10:19:20 PM 36.0586 -114.7931 151° Southeast 276 318 11,900  Level Los Angeles Center
Sun 10:20:21 PM 35.9956 -114.7506 166° South 266 306 11,900  Level Los Angeles Center
Sun 10:21:22 PM 35.9267 -114.7286 163° South 265 305 11,900  Level Los Angeles Center
Sun 10:22:16 PM 35.8617 -114.7042 223° Southwest 267 307 11,900  Level Los Angeles Center
Sun 10:23:17 PM 35.8100 -114.7639 320° Northwest 261 300 11,900  Level Los Angeles Center
Sun 10:24:18 PM 35.8628 -114.8194 North 278 320 11,900 -393 Level Los Angeles Center
Sun 10:25:19 PM 35.9400 -114.8156 81° East 282 325 11,100 -1,785 Descending Los Angeles Center
Sun 10:26:19 PM 35.9517 -114.7283 83° East 274 315 8,300 -1,587 Descending Los Angeles Center
Sun 10:27:20 PM 35.9608 -114.6356 13° North 271 312 7,900 -541 Descending Los Angeles Center
Sun 10:28:21 PM 36.0294 -114.6164 306° West 251 289 7,200 -422 Descending Los Angeles Center
Sun 10:29:28 PM 36.0658 -114.6775 281° West 196 226 7,000 -134 Descending Los Angeles Center
Sun 10:30:35 PM 36.0769 -114.7517 271° West 189 217 6,900 -99 Descending Los Angeles Center
Sun 10:31:29 PM 36.0778 -114.8083 271° West 187 215 6,800 -574 Descending Los Angeles Center
Sun 10:32:30 PM 36.0783 -114.8700 268° West 177 204 5,800 -934 Descending Los Angeles Center
Sun 10:33:31 PM 36.0769 -114.9317 271° West 173 199 4,900 -836 Descending Los Angeles Center
Sun 10:34:32 PM 36.0775 -114.9908 270° West 163 188 4,100 -836 Descending Los Angeles Center
Sun 10:35:33 PM 36.0778 -115.0472 268° West 166 191 3,200 -843 Descending Los Angeles Center
Sun 10:36:33 PM 36.0764 -115.1011 268° West 164 189 2,400 -800 Descending Los Angeles Center

Login

Don't have an account? Register now (free) for customized features, flight alerts, and more!